Huvudsida
METAR-TAF:

METAR-TAF

Flygplatser :

Nyslotts flygplats

Nyslott, Finland

latitud: 61-57N, longitud: 028-57E, höjd: 95 m

Aktuellt väderrapport

Denna rapport gjordes för 22 minuter sedan, klockan 09:20 UTC
Vind 7 kt från syd, varierande mellan ost och sydväst
Temperatur 23°C
Fuktighet 33%
Tryck 1023 hPa
Sikt 10 km eller mer
Inga moln under 1 500 m eller inga cumulonimbus

METAR: EFSA 220920Z AUTO 18007KT 100V230 CAVOK 23/06 Q1023

Tid: 12:42 (09:42 UTC)

Väderprognos

Denna rapport gjordes för 1 timme och 6 minuter sedan, klockan 08:36 UTC
Prognos gäller från 22 kl. 09 UTC till 22 kl. 18 UTC
Vind 7 kt från syd
Sikt 10 km eller mer
Inga moln under 1 500 m eller inga cumulonimbus
Sannolikhet 40%
från 22 kl. 10 UTC till 22 kl. 13 UTC
Vind 8 kt från syd/sydväst i byarna ända upp till 18 kt

TAF: EFSA 220836Z 2209/2218 19007KT CAVOK PROB40 2210/2213 20008G18KT

Aktuella väderrapporter och prognoser från 4000 flygplatser (METAR- och TAF-rapporter).

De tillgängliga stationerna syns som gula och röda prickar på kartan.

För musen över prickarna för att se namnen på stationerna.

Klicka sedan för att få väderrapporter och prognoser.

För att ändra kartan: Klicka på de gröna knapparna med ett svart kors på för att zooma in; den gröna knappen med ett streck på för att zooma ut; eller på de gröna pilarna för angränsande kartor.


METAR-TAF: